Alvordton, Ohio
Current Conditions -  °F | °C
As of 5:55 AM on Friday 21 Nov 2014 (Local Time) from KUSE Reporting Station
Overcast Overcast  
Wind Chill:   Ceiling: 4400
Heat Index: 14°   Visibility: 10mi
Dew Point: 10°   Wind: 5mph
Humidity: 86%   Direction: 270°W
Pressure: 30.36"   Gusts: NA
Location:  41.67°N, 84.44°W
Report Text: KUSE 211055Z AUTO 27004KT 10SM OVC044 M10/M12 A3036 RMK AO2
Loading
Personal Weather Stations






























Interactive Weather Map New forecast layout! Learn more

10-Day Weather Forecast

Advertisements
Track Severe Weather on mobile